• Join FlightAware (Why Join?)
  • Login
  • US Flag 
08:01AM EDT


 

Airport Tracker/Info


-or-


 

Live Flight TrackerFlight Track Log ✈ N894SA ✈ 26-Jul-2013 ✈ KSRQ - KAPF

Flight Track Log - Related Links

Times and Time Zones

All times are in EDT time to prevent confusion due to time zone crossing. See the N894SA flight status page for this flight to view local times or setup timezone preferences in your user account.

Time Position Orientation Groundspeed Altitude Reporting Facility
EDT Latitude Longitude Course Direction KTS MPH feet Rate Location/Type
11:53AM 27.3667 -82.5833 222° Southwest 81 93 1,000  Level Tampa TRACON
11:54AM 27.3500 -82.6000 222° Southwest 97 112 1,600 600 Climbing Tampa TRACON
11:55AM 27.3333 -82.6000 180° South 105 121 2,300 660 Climbing Tampa TRACON
11:56AM 27.3000 -82.5833 156° South 104 120 3,000 600 Climbing Tampa TRACON
11:58AM 27.2667 -82.5667 156° South 115 132 3,600 480 Climbing Tampa TRACON
11:58AM 27.2500 -82.5500 138° Southeast 117 135 4,000 480 Climbing Tampa TRACON
12:00PM 27.2167 -82.5167 138° Southeast 118 136 4,600 420 Climbing Tampa TRACON
12:01PM 27.2000 -82.5000 138° Southeast 119 137 5,000 180 Climbing Tampa TRACON
12:02PM 27.1667 -82.4667 138° Southeast 141 162 5,000  Level Tampa TRACON
12:03PM 27.1333 -82.4333 138° Southeast 145 167 5,000  Level Tampa TRACON
12:05PM 27.1154 -82.3659 107° East  Level FlightAware Approximate
12:12PM 26.9882 -82.1486 160° South  Level FlightAware Approximate
12:13PM 26.9579 -82.1365 160° South  Level FlightAware Approximate
12:14PM 26.9277 -82.1244 160° South  Level FlightAware Approximate
12:15PM 26.8974 -82.1123 160° South  Level FlightAware Approximate
12:16PM 26.8671 -82.1002 160° South  Level FlightAware Approximate
12:17PM 26.8375 -82.0864 157° South  Level FlightAware Approximate
12:18PM 26.8078 -82.0726 157° South  Level FlightAware Approximate
12:19PM 26.7781 -82.0587 157° South  Level FlightAware Approximate
12:20PM 26.7484 -82.0449 157° South  Level FlightAware Approximate
12:21PM 26.7188 -82.0311 157° South  Level FlightAware Approximate
12:22PM 26.6891 -82.0173 157° South  Level FlightAware Approximate
12:23PM 26.6594 -82.0035 157° South  Level FlightAware Approximate
12:24PM 26.6298 -81.9898 157° South  Level FlightAware Approximate
12:25PM 26.6001 -81.9760 157° South  Level FlightAware Approximate
12:26PM 26.5704 -81.9622 157° South  Level FlightAware Approximate
12:27PM 26.5407 -81.9485 157° South  Level FlightAware Approximate
12:28PM 26.5110 -81.9347 157° South  Level FlightAware Approximate
12:29PM 26.4814 -81.9210 157° South  Level FlightAware Approximate
12:30PM 26.4517 -81.9072 157° South  Level FlightAware Approximate
12:31PM 26.4220 -81.8935 157° South  Level FlightAware Approximate
12:32PM 26.3923 -81.8798 158° South  Level FlightAware Approximate
12:33PM 26.3626 -81.8663 158° South  Level FlightAware Approximate
12:34PM 26.3328 -81.8528 158° South  Level FlightAware Approximate
12:35PM 26.3031 -81.8392 158° South  Level FlightAware Approximate
12:36PM 26.2733 -81.8257 158° South  Level FlightAware Approximate
12:37PM 26.2436 -81.8122 158° South  Level FlightAware Approximate
12:38PM 26.2139 -81.7986 156° South  Level FlightAware Approximate
12:39PM 26.1845 -81.7839 156° South  Level FlightAware Approximate
12:40PM 26.1552 -81.7693 156° South  Level FlightAware Approximate
12:41PM 26.1500 -81.7667 156° South  Level FlightAware Approximate
12:42PM 26.1524 -81.7756 156° South  Level Estimated
12:43PM 26.1524 -81.7756 156° South  Level Estimated
12:44PM 26.1524 -81.7756 156° South  Level Estimated
12:45PM 26.1524 -81.7756 156° South  Level Estimated
12:46PM 26.1524 -81.7756 156° South  Level Estimated
12:47PM 26.1524 -81.7756 156° South  Level Estimated
12:48PM 26.1524 -81.7756 156° South  Level Estimated